Time;durP1;ratioP1;P1;durP2;ratioP2;P2;SDS_P1;SDS_P2;PMS_P1;PMS_P2;Temp;Humidity;BMP_temperature;BMP_pressure;BME280_temperature;BME280_humidity;BME280_pressure;Samples;Min_cycle;Max_cycle;Signal;HPM_P1;HPM_P2
2022/12/24 00:02:21;;;;;;;2.90;1.40;;;10.00;99.90;;;;;;5072476;28;20462;-74
2022/12/24 00:04:48;;;;;;;2.20;1.07;;;10.00;99.90;;;;;;5072342;28;20452;-74
2022/12/24 00:07:14;;;;;;;3.57;1.37;;;9.90;99.90;;;;;;5071683;28;20487;-74
2022/12/24 00:09:41;;;;;;;1.60;1.13;;;9.90;99.90;;;;;;5072520;28;20471;-74
2022/12/24 00:12:09;;;;;;;1.90;1.20;;;9.90;99.90;;;;;;5071916;28;20941;-74
2022/12/24 00:14:36;;;;;;;4.60;1.30;;;9.90;99.90;;;;;;5072631;28;20882;-73
2022/12/24 00:17:03;;;;;;;3.33;1.53;;;9.80;99.90;;;;;;5071897;28;20455;-74
2022/12/24 00:19:30;;;;;;;1.33;0.90;;;9.70;99.90;;;;;;5072181;28;20542;-73
2022/12/24 00:21:57;;;;;;;2.47;1.73;;;9.70;99.90;;;;;;5072451;28;20485;-74
2022/12/24 00:24:23;;;;;;;9.50;1.50;;;9.70;99.90;;;;;;5072173;28;20458;-75
2022/12/24 00:26:50;;;;;;;5.60;1.37;;;9.70;99.90;;;;;;5072048;28;20446;-73
2022/12/24 00:29:19;;;;;;;2.30;1.10;;;9.80;99.90;;;;;;5071595;28;20453;-74
2022/12/24 00:31:46;;;;;;;2.03;1.27;;;9.90;99.90;;;;;;5071719;28;20454;-74
2022/12/24 00:34:13;;;;;;;3.13;1.23;;;10.00;99.90;;;;;;5071280;28;20453;-74
2022/12/24 00:36:40;;;;;;;7.80;2.00;;;10.00;99.90;;;;;;5071785;28;20781;-73
2022/12/24 00:39:06;;;;;;;3.53;1.80;;;10.10;99.90;;;;;;5071539;28;20458;-73
2022/12/24 00:41:33;;;;;;;4.30;1.83;;;10.10;99.90;;;;;;5071997;28;20515;-73
2022/12/24 00:44:04;;;;;;;1.93;1.20;;;10.20;99.90;;;;;;5071214;28;20463;-73
2022/12/24 00:46:34;;;;;;;3.93;1.00;;;10.10;99.90;;;;;;5071678;28;20473;-73
2022/12/24 00:49:01;;;;;;;1.50;1.00;;;10.10;99.90;;;;;;5071477;28;20478;-73
2022/12/24 00:51:28;;;;;;;1.17;1.00;;;10.10;99.90;;;;;;5072180;28;20444;-74
2022/12/24 00:53:55;;;;;;;2.30;1.57;;;10.10;99.90;;;;;;5071589;28;20443;-74
2022/12/24 00:56:22;;;;;;;2.03;1.37;;;10.10;99.90;;;;;;5070899;28;20443;-73
2022/12/24 00:58:49;;;;;;;4.00;1.67;;;10.10;99.90;;;;;;5071593;28;20570;-74
2022/12/24 01:01:17;;;;;;;1.50;1.10;;;10.00;99.90;;;;;;5071035;28;20479;-73
2022/12/24 01:03:45;;;;;;;2.27;1.60;;;9.90;99.90;;;;;;5071493;28;20450;-73
2022/12/24 01:06:13;;;;;;;1.90;1.43;;;9.90;99.90;;;;;;5070706;28;20442;-74
2022/12/24 01:08:41;;;;;;;3.13;1.47;;;9.90;99.90;;;;;;5058580;28;20585;-74
2022/12/24 01:11:10;;;;;;;5.30;1.50;;;9.90;99.90;;;;;;5070678;28;20938;-73
2022/12/24 01:13:37;;;;;;;3.10;1.10;;;10.10;99.90;;;;;;5071349;28;20949;-73
2022/12/24 01:16:12;;;;;;;7.47;0.93;;;10.00;99.90;;;;;;5070620;28;20447;-73
2022/12/24 01:18:39;;;;;;;2.03;1.20;;;9.90;99.90;;;;;;5071194;28;20446;-74
2022/12/24 01:21:07;;;;;;;1.30;1.10;;;10.00;99.90;;;;;;5070759;28;20840;-73
2022/12/24 01:23:34;;;;;;;4.63;1.47;;;9.90;99.90;;;;;;5071187;28;20457;-74
2022/12/24 01:26:02;;;;;;;2.73;0.97;;;10.00;99.90;;;;;;5070332;28;20446;-73
2022/12/24 01:28:29;;;;;;;12.17;1.50;;;10.00;99.90;;;;;;5071515;28;20454;-74
2022/12/24 01:30:56;;;;;;;1.47;1.17;;;10.00;99.90;;;;;;5071207;28;20461;-74
2022/12/24 01:33:22;;;;;;;2.33;1.37;;;10.00;99.90;;;;;;5070489;28;20463;-73
2022/12/24 01:35:49;;;;;;;1.77;0.77;;;9.90;99.90;;;;;;5070741;28;20806;-74
2022/12/24 01:38:17;;;;;;;6.73;1.43;;;10.20;99.90;;;;;;5070429;28;20471;-74
2022/12/24 01:43:31;;;;;;;2.83;1.00;;;10.20;99.90;;;;;;5070229;28;20459;-73
2022/12/24 01:45:59;;;;;;;0.90;0.80;;;10.30;99.90;;;;;;5070390;28;21049;-74
2022/12/24 01:48:34;;;;;;;2.07;1.20;;;10.40;99.90;;;;;;5070781;28;20444;-73
2022/12/24 01:51:05;;;;;;;1.33;0.73;;;10.50;99.90;;;;;;5070653;28;20452;-73
2022/12/24 01:53:35;;;;;;;3.33;1.37;;;10.50;99.90;;;;;;5070998;28;20456;-74
2022/12/24 01:56:03;;;;;;;3.00;0.90;;;10.70;99.90;;;;;;5070258;28;20448;-73
2022/12/24 01:58:30;;;;;;;3.50;0.90;;;10.80;99.90;;;;;;5070665;28;20449;-73
2022/12/24 02:00:58;;;;;;;2.45;1.23;;;10.80;99.90;;;;;;5069866;28;20450;-74
2022/12/24 02:03:25;;;;;;;2.63;1.00;;;10.80;99.90;;;;;;5070972;28;20564;-73
2022/12/24 02:05:54;;;;;;;1.03;0.53;;;10.90;99.90;;;;;;5070232;28;20456;-74
2022/12/24 02:08:21;;;;;;;2.17;1.20;;;10.80;99.90;;;;;;5070074;28;20820;-73
2022/12/24 02:10:50;;;;;;;2.60;1.00;;;10.90;99.90;;;;;;5070918;28;20793;-73
2022/12/24 02:13:20;;;;;;;2.07;1.20;;;10.80;99.90;;;;;;5070325;28;20556;-74
2022/12/24 02:15:59;;;;;;;6.93;1.30;;;10.70;99.90;;;;;;5070315;28;20452;-73
2022/12/24 02:18:33;;;;;;;7.60;1.27;;;10.70;99.90;;;;;;5070973;28;20452;-73
2022/12/24 02:21:48;;;;;;;2.17;1.10;;;10.70;99.90;;;;;;5069886;28;20582;-72
2022/12/24 02:24:54;;;;;;;2.30;0.80;;;10.50;99.90;;;;;;5059314;28;20464;-73
2022/12/24 02:27:45;;;;;;;2.10;1.07;;;10.50;99.90;;;;;;5069620;28;20455;-74
2022/12/24 02:30:17;;;;;;;1.90;1.07;;;10.40;99.90;;;;;;5069929;28;20447;-72
2022/12/24 02:33:14;;;;;;;6.23;1.50;;;10.40;99.90;;;;;;5070573;28;20443;-72
2022/12/24 02:35:50;;;;;;;1.90;1.00;;;10.40;99.90;;;;;;5046438;28;20542;-72
2022/12/24 02:38:22;;;;;;;4.13;1.20;;;10.40;99.90;;;;;;5069815;28;20455;-72
2022/12/24 02:40:53;;;;;;;3.03;1.30;;;10.40;99.90;;;;;;5070114;28;20781;-72
2022/12/24 02:43:23;;;;;;;1.93;0.80;;;10.40;99.90;;;;;;5069981;28;20470;-72
2022/12/24 02:45:57;;;;;;;1.10;0.73;;;10.30;99.90;;;;;;5070098;28;20624;-72
2022/12/24 02:48:26;;;;;;;3.93;1.13;;;10.10;99.90;;;;;;5070545;28;20444;-72
2022/12/24 02:51:03;;;;;;;1.60;1.07;;;10.00;99.90;;;;;;5070309;28;20466;-72
2022/12/24 02:53:31;;;;;;;1.90;0.80;;;9.80;99.90;;;;;;5071397;28;20484;-73
2022/12/24 02:56:27;;;;;;;8.03;1.57;;;9.70;99.90;;;;;;5073967;28;20462;-72
2022/12/24 02:59:13;;;;;;;2.20;1.47;;;9.50;99.90;;;;;;5065023;28;20458;-72
2022/12/24 03:01:51;;;;;;;2.13;0.80;;;9.50;99.90;;;;;;5073866;28;20470;-73
2022/12/24 03:04:38;;;;;;;3.07;1.17;;;9.70;99.90;;;;;;5073241;28;20953;-72
2022/12/24 03:07:10;;;;;;;3.13;1.37;;;9.70;99.90;;;;;;5073411;28;20518;-72
2022/12/24 03:09:47;;;;;;;2.13;1.57;;;9.90;99.90;;;;;;5075169;28;20476;-72
2022/12/24 03:12:18;;;;;;;5.73;1.13;;;10.00;99.90;;;;;;5075838;28;20453;-73
2022/12/24 03:14:46;;;;;;;1.57;0.80;;;10.00;99.90;;;;;;5077225;28;20450;-72
2022/12/24 03:17:15;;;;;;;6.23;1.20;;;9.90;99.90;;;;;;5080460;28;20452;-72
2022/12/24 03:19:42;;;;;;;4.20;1.43;;;9.80;99.90;;;;;;5083031;28;20565;-72
2022/12/24 03:22:11;;;;;;;2.10;1.10;;;9.70;99.90;;;;;;5081765;28;20492;-72
2022/12/24 03:24:38;;;;;;;2.30;1.07;;;9.60;99.90;;;;;;5081754;28;20457;-72
2022/12/24 03:27:07;;;;;;;1.80;1.30;;;9.70;99.90;;;;;;5081374;28;20446;-72
2022/12/24 03:29:34;;;;;;;5.03;1.67;;;9.70;99.90;;;;;;5081553;28;20454;-72
2022/12/24 03:32:03;;;;;;;6.87;1.20;;;9.60;99.90;;;;;;5079915;28;20451;-72
2022/12/24 03:34:31;;;;;;;2.37;1.20;;;9.70;99.90;;;;;;5080808;28;20452;-72
2022/12/24 03:36:59;;;;;;;3.67;1.60;;;9.60;99.90;;;;;;5079513;28;20454;-72
2022/12/24 03:39:26;;;;;;;3.37;1.73;;;9.50;99.90;;;;;;5068611;28;20457;-74
2022/12/24 03:41:53;;;;;;;1.20;0.90;;;9.50;99.90;;;;;;5080003;28;20481;-72
2022/12/24 03:44:19;;;;;;;3.87;1.27;;;9.60;99.90;;;;;;5080286;28;20477;-72
2022/12/24 03:46:46;;;;;;;1.40;1.03;;;9.60;99.90;;;;;;5081733;28;20468;-72
2022/12/24 03:49:13;;;;;;;4.63;1.60;;;9.60;99.90;;;;;;5081999;28;20967;-72
2022/12/24 03:51:41;;;;;;;5.50;1.10;;;9.50;99.90;;;;;;5079829;28;20442;-72
2022/12/24 03:54:08;;;;;;;2.87;1.30;;;9.50;99.90;;;;;;5073902;28;20957;-72
2022/12/24 03:56:35;;;;;;;2.00;1.43;;;9.60;99.90;;;;;;5073893;28;20446;-72
2022/12/24 03:59:01;;;;;;;1.37;0.90;;;9.50;99.90;;;;;;5072886;28;20458;-71
2022/12/24 04:01:29;;;;;;;2.77;1.47;;;9.50;99.90;;;;;;5073765;28;20482;-72
2022/12/24 04:03:56;;;;;;;1.33;1.23;;;9.50;99.90;;;;;;5075365;28;20462;-73
2022/12/24 04:06:22;;;;;;;2.93;1.30;;;9.40;99.90;;;;;;5072007;28;20976;-72
2022/12/24 04:08:50;;;;;;;3.00;1.00;;;9.40;99.90;;;;;;5074689;28;20568;-72
2022/12/24 04:11:18;;;;;;;1.40;1.00;;;9.40;99.90;;;;;;5072311;28;20465;-72
2022/12/24 04:13:45;;;;;;;4.30;2.50;;;9.40;99.90;;;;;;5073380;28;20541;-72
2022/12/24 04:16:14;;;;;;;1.47;0.83;;;9.60;99.90;;;;;;5072695;28;20450;-72
2022/12/24 04:18:41;;;;;;;2.23;1.40;;;9.50;99.90;;;;;;5072543;28;20446;-72
2022/12/24 04:21:09;;;;;;;4.20;2.50;;;9.40;99.90;;;;;;5071840;28;20470;-72
2022/12/24 04:23:38;;;;;;;1.77;1.13;;;9.50;99.90;;;;;;5072159;28;20927;-72
2022/12/24 04:26:08;;;;;;;2.10;0.97;;;9.40;99.90;;;;;;5071157;28;20444;-72
2022/12/24 04:28:35;;;;;;;3.03;1.87;;;9.40;99.90;;;;;;5072001;28;20934;-72
2022/12/24 04:31:06;;;;;;;4.87;1.27;;;9.40;99.90;;;;;;5071571;28;20446;-72
2022/12/24 04:33:33;;;;;;;9.80;2.10;;;9.50;99.90;;;;;;5072075;28;20943;-72
2022/12/24 04:36:00;;;;;;;3.23;1.23;;;9.60;99.90;;;;;;5071121;28;20447;-72
2022/12/24 04:38:28;;;;;;;3.40;1.30;;;9.60;99.90;;;;;;5072367;28;20451;-73
2022/12/24 04:40:59;;;;;;;4.67;1.40;;;9.50;99.90;;;;;;5072392;28;20810;-73
2022/12/24 04:43:27;;;;;;;2.03;1.13;;;9.40;99.90;;;;;;5072473;28;20443;-72
2022/12/24 04:45:54;;;;;;;1.43;0.90;;;9.40;99.90;;;;;;5058186;28;20446;-72
2022/12/24 04:48:21;;;;;;;3.10;1.00;;;9.40;99.90;;;;;;5071445;28;20456;-72
2022/12/24 04:50:48;;;;;;;3.77;1.20;;;9.40;99.90;;;;;;5072146;28;20446;-72
2022/12/24 04:53:15;;;;;;;5.60;2.77;;;9.40;99.90;;;;;;5071362;28;20446;-72
2022/12/24 04:55:44;;;;;;;2.43;1.17;;;9.40;99.90;;;;;;5071678;28;20453;-72
2022/12/24 04:58:11;;;;;;;4.67;3.20;;;9.40;99.90;;;;;;5071172;28;20807;-72
2022/12/24 05:00:39;;;;;;;2.70;1.10;;;9.40;99.90;;;;;;5071340;28;20964;-72
2022/12/24 05:03:06;;;;;;;4.33;1.60;;;9.30;99.90;;;;;;5071054;28;20492;-73
2022/12/24 05:05:33;;;;;;;3.43;1.13;;;9.20;99.90;;;;;;5071179;28;20449;-72
2022/12/24 05:08:00;;;;;;;3.30;1.47;;;9.20;99.90;;;;;;5070766;28;20509;-72
2022/12/24 05:10:26;;;;;;;1.93;1.00;;;9.30;99.90;;;;;;5071367;28;20455;-74
2022/12/24 05:12:53;;;;;;;2.50;1.67;;;9.20;99.90;;;;;;5071273;28;20971;-72
2022/12/24 05:15:21;;;;;;;6.53;2.03;;;9.20;99.90;;;;;;5070409;28;20791;-72
2022/12/24 05:17:49;;;;;;;1.17;0.70;;;9.20;99.90;;;;;;5071187;28;20446;-72
2022/12/24 05:20:16;;;;;;;5.63;1.80;;;9.10;99.90;;;;;;5070744;28;20461;-72
2022/12/24 05:28:18;;;;;;;4.43;1.37;;;8.90;99.90;;;;;;5059653;28;20425;-72
2022/12/24 05:30:44;;;;;;;6.00;1.80;;;8.90;99.90;;;;;;5071021;28;20458;-72
2022/12/24 05:33:13;;;;;;;2.10;1.10;;;9.00;99.90;;;;;;5070419;28;20552;-72
2022/12/24 05:35:39;;;;;;;5.50;1.63;;;9.10;99.90;;;;;;5070310;28;20446;-72
2022/12/24 05:38:06;;;;;;;3.20;1.30;;;9.00;99.90;;;;;;5070728;28;20460;-72
2022/12/24 05:40:33;;;;;;;1.53;1.00;;;9.20;99.90;;;;;;5071068;28;20453;-72
2022/12/24 05:43:00;;;;;;;4.17;1.20;;;9.20;99.90;;;;;;5070277;28;20488;-71
2022/12/24 05:45:27;;;;;;;1.40;1.10;;;9.30;99.90;;;;;;5070669;28;20466;-72
2022/12/24 05:47:53;;;;;;;5.63;1.13;;;9.30;99.90;;;;;;5071279;28;20452;-72
2022/12/24 05:50:21;;;;;;;6.03;1.20;;;9.30;99.90;;;;;;5069994;28;20457;-72
2022/12/24 05:52:48;;;;;;;7.37;2.57;;;9.20;99.90;;;;;;5071013;28;20787;-72
2022/12/24 05:55:15;;;;;;;5.50;1.43;;;9.30;99.90;;;;;;5069950;28;20450;-72
2022/12/24 05:57:42;;;;;;;5.23;1.60;;;9.30;99.90;;;;;;5070972;28;20461;-72
2022/12/24 06:00:10;;;;;;;2.87;1.40;;;9.20;99.90;;;;;;5069888;28;20934;-72
2022/12/24 06:02:37;;;;;;;3.10;1.20;;;9.20;99.90;;;;;;5071061;28;20807;-72
2022/12/24 06:05:04;;;;;;;4.10;1.90;;;9.20;99.90;;;;;;5070613;28;20447;-72
2022/12/24 06:07:32;;;;;;;3.00;1.20;;;9.20;99.90;;;;;;5070649;28;20454;-72
2022/12/24 06:09:59;;;;;;;6.50;2.10;;;9.20;99.90;;;;;;5070514;28;20479;-71
2022/12/24 06:12:26;;;;;;;5.40;1.40;;;9.20;99.90;;;;;;5071220;28;20452;-72
2022/12/24 06:14:53;;;;;;;1.10;0.80;;;9.10;99.90;;;;;;5070615;28;20917;-72
2022/12/24 06:17:19;;;;;;;2.40;1.23;;;9.10;99.90;;;;;;5070044;28;20446;-72
2022/12/24 06:19:46;;;;;;;2.93;1.40;;;9.10;99.90;;;;;;5070992;28;20450;-72
2022/12/24 06:22:13;;;;;;;3.00;1.40;;;9.20;99.90;;;;;;5070090;28;20481;-73
2022/12/24 06:24:41;;;;;;;6.20;3.07;;;9.30;99.90;;;;;;5070847;28;20797;-72
2022/12/24 06:27:08;;;;;;;4.70;2.60;;;9.30;99.90;;;;;;5069801;28;20537;-72
2022/12/24 06:29:35;;;;;;;2.07;1.53;;;9.20;99.90;;;;;;5073624;28;20453;-72
2022/12/24 06:32:02;;;;;;;2.60;1.37;;;9.20;99.90;;;;;;5074449;28;20457;-72
2022/12/24 06:34:29;;;;;;;3.50;1.43;;;9.10;99.90;;;;;;5074397;28;20468;-72
2022/12/24 06:36:55;;;;;;;4.17;1.60;;;9.10;99.90;;;;;;5074027;28;20925;-72
2022/12/24 06:39:22;;;;;;;5.17;1.10;;;9.00;99.90;;;;;;5074062;28;20470;-72
2022/12/24 06:41:50;;;;;;;4.40;1.80;;;9.00;99.90;;;;;;5074586;28;20462;-72
2022/12/24 06:44:17;;;;;;;3.93;1.20;;;8.90;99.90;;;;;;5074419;28;20457;-72
2022/12/24 06:46:44;;;;;;;1.50;1.10;;;8.80;99.90;;;;;;5073965;28;20447;-72
2022/12/24 06:49:11;;;;;;;6.37;1.27;;;8.70;99.90;;;;;;5071961;28;20452;-71
2022/12/24 06:51:37;;;;;;;11.23;2.20;;;8.60;99.90;;;;;;5074401;28;20442;-72
2022/12/24 06:54:04;;;;;;;4.83;1.90;;;8.60;99.90;;;;;;5061014;28;20445;-71
2022/12/24 06:56:31;;;;;;;2.40;1.13;;;8.60;99.90;;;;;;5074032;28;20441;-72
2022/12/24 06:58:59;;;;;;;3.00;0.90;;;8.60;99.90;;;;;;5074790;28;20454;-72
2022/12/24 07:01:26;;;;;;;1.23;0.80;;;8.60;99.90;;;;;;5074069;28;20449;-72
2022/12/24 07:03:53;;;;;;;1.63;1.20;;;8.60;99.90;;;;;;5074223;28;20847;-72
2022/12/24 07:06:24;;;;;;;6.03;1.27;;;8.60;99.90;;;;;;5073174;28;20458;-72
2022/12/24 07:08:51;;;;;;;1.70;1.00;;;8.70;99.90;;;;;;5073958;28;20473;-71
2022/12/24 07:11:18;;;;;;;4.90;2.50;;;8.60;99.90;;;;;;5073191;28;20452;-72
2022/12/24 07:13:45;;;;;;;1.90;0.90;;;8.60;99.90;;;;;;5074064;28;20461;-72
2022/12/24 07:16:14;;;;;;;3.10;1.17;;;8.60;99.90;;;;;;5072777;28;20463;-72
2022/12/24 07:18:40;;;;;;;6.37;1.90;;;8.50;99.90;;;;;;5073810;28;20446;-72
2022/12/24 07:21:07;;;;;;;2.70;1.20;;;8.50;99.90;;;;;;5073367;28;20449;-72
2022/12/24 07:23:34;;;;;;;2.23;1.60;;;8.60;99.90;;;;;;5073865;28;20484;-72
2022/12/24 07:26:02;;;;;;;3.60;1.60;;;8.60;99.90;;;;;;5072510;28;20443;-73
2022/12/24 07:28:29;;;;;;;5.60;2.00;;;8.60;99.90;;;;;;5073658;28;20449;-72
2022/12/24 07:30:56;;;;;;;4.33;1.83;;;8.50;99.90;;;;;;5073462;28;20450;-73
2022/12/24 07:33:24;;;;;;;1.83;1.30;;;8.70;99.90;;;;;;5072888;28;20963;-73
2022/12/24 07:35:59;;;;;;;14.10;2.03;;;8.60;99.90;;;;;;5073126;28;20471;-72
2022/12/24 07:38:26;;;;;;;4.00;1.33;;;8.60;99.90;;;;;;5073719;28;20873;-72
2022/12/24 07:40:53;;;;;;;2.97;1.43;;;8.70;99.90;;;;;;5073475;28;20453;-72
2022/12/24 07:43:20;;;;;;;4.90;1.40;;;8.80;99.90;;;;;;5072795;28;20492;-72
2022/12/24 07:45:47;;;;;;;4.10;1.60;;;8.70;99.90;;;;;;5072807;28;20461;-72
2022/12/24 07:48:14;;;;;;;11.93;1.70;;;8.80;99.90;;;;;;5072316;28;20456;-73
2022/12/24 07:50:42;;;;;;;13.53;3.17;;;8.70;99.90;;;;;;5073266;28;20883;-73
2022/12/24 07:53:08;;;;;;;3.80;1.60;;;8.70;99.90;;;;;;5072592;28;20795;-73
2022/12/24 07:55:36;;;;;;;1.93;1.33;;;8.60;99.90;;;;;;5072806;28;20453;-72
2022/12/24 07:58:03;;;;;;;3.80;1.43;;;8.50;99.90;;;;;;5072626;28;20794;-72
2022/12/24 08:00:29;;;;;;;1.50;1.03;;;8.50;99.90;;;;;;5059894;28;20821;-73
2022/12/24 08:02:58;;;;;;;3.90;2.20;;;8.40;99.90;;;;;;5072954;28;20481;-73
2022/12/24 08:05:25;;;;;;;3.67;1.70;;;8.30;99.90;;;;;;5059359;28;21028;-73
2022/12/24 08:07:54;;;;;;;1.93;1.67;;;8.30;99.90;;;;;;5072471;28;20457;-73
2022/12/24 08:10:21;;;;;;;2.90;2.17;;;8.40;99.90;;;;;;5072373;28;20440;-73
2022/12/24 08:12:48;;;;;;;2.60;1.00;;;8.50;99.90;;;;;;5072733;28;20452;-73
2022/12/24 08:15:15;;;;;;;3.50;1.60;;;8.50;99.90;;;;;;5071686;28;20449;-74
2022/12/24 08:17:43;;;;;;;3.20;1.80;;;8.60;99.90;;;;;;5072614;28;20806;-73
2022/12/24 08:20:10;;;;;;;4.50;2.10;;;8.50;99.90;;;;;;5072150;28;20476;-73
2022/12/24 08:22:37;;;;;;;3.10;1.60;;;8.40;99.90;;;;;;5072432;28;20491;-73
2022/12/24 08:25:07;;;;;;;8.33;2.83;;;8.50;99.90;;;;;;5071648;28;20453;-73
2022/12/24 08:27:33;;;;;;;5.57;2.10;;;8.70;99.90;;;;;;5072140;28;20945;-74
2022/12/24 08:30:00;;;;;;;4.73;2.20;;;8.80;99.90;;;;;;5071608;28;20450;-73
2022/12/24 08:32:27;;;;;;;6.70;2.03;;;8.80;99.90;;;;;;5072674;28;20453;-73
2022/12/24 08:34:54;;;;;;;8.07;2.40;;;8.70;99.90;;;;;;5072517;28;20455;-73
2022/12/24 08:37:21;;;;;;;3.57;1.60;;;8.70;99.90;;;;;;5071386;28;21140;-73
2022/12/24 08:39:48;;;;;;;5.27;2.50;;;8.60;99.90;;;;;;5072142;28;20962;-73
2022/12/24 08:42:16;;;;;;;4.00;2.30;;;8.60;99.90;;;;;;5071592;28;20460;-73
2022/12/24 08:44:42;;;;;;;3.83;2.20;;;8.60;99.90;;;;;;5072335;28;20449;-73
2022/12/24 08:47:09;;;;;;;2.70;1.60;;;8.80;99.90;;;;;;5071070;28;20450;-74
2022/12/24 08:49:36;;;;;;;5.40;2.53;;;8.80;99.90;;;;;;5071931;28;20446;-73
2022/12/24 08:52:03;;;;;;;4.67;2.87;;;8.90;99.90;;;;;;5071015;28;20500;-74
2022/12/24 08:54:30;;;;;;;3.90;2.00;;;8.80;99.90;;;;;;5071922;28;20454;-74
2022/12/24 08:56:57;;;;;;;2.80;1.80;;;8.80;99.90;;;;;;5071279;28;20456;-73
2022/12/24 08:59:25;;;;;;;6.73;2.57;;;8.90;99.90;;;;;;5071546;28;20453;-73
2022/12/24 09:01:52;;;;;;;2.17;1.63;;;8.90;99.90;;;;;;5071297;28;20457;-73
2022/12/24 09:04:19;;;;;;;4.30;2.37;;;8.90;99.90;;;;;;5071193;28;20938;-73
2022/12/24 09:06:46;;;;;;;5.27;2.23;;;9.00;99.90;;;;;;5071086;28;20937;-74
2022/12/24 09:09:13;;;;;;;2.47;1.77;;;9.00;99.90;;;;;;5070752;28;21014;-73
2022/12/24 09:11:39;;;;;;;8.20;1.90;;;9.00;99.90;;;;;;5071323;28;20459;-74
2022/12/24 09:14:06;;;;;;;8.03;2.43;;;9.00;99.90;;;;;;5070965;28;20488;-73
2022/12/24 09:16:35;;;;;;;4.17;2.00;;;9.00;99.90;;;;;;5071142;28;20454;-73
2022/12/24 09:19:01;;;;;;;2.87;2.07;;;9.10;99.90;;;;;;5070816;28;20449;-73
2022/12/24 09:21:28;;;;;;;6.67;2.07;;;9.20;99.90;;;;;;5071696;28;20442;-73
2022/12/24 09:23:55;;;;;;;5.57;1.90;;;9.20;99.90;;;;;;5071384;28;20477;-74
2022/12/24 09:26:24;;;;;;;5.73;1.67;;;9.20;99.90;;;;;;5070221;28;20446;-73
2022/12/24 09:28:51;;;;;;;1.77;1.60;;;9.30;99.90;;;;;;5071361;28;20455;-73
2022/12/24 09:31:18;;;;;;;9.87;2.37;;;9.20;99.90;;;;;;5057479;28;20450;-73
2022/12/24 09:33:48;;;;;;;7.30;1.97;;;9.20;99.90;;;;;;5071414;28;20455;-73
2022/12/24 09:36:15;;;;;;;3.30;1.43;;;9.20;99.90;;;;;;5070455;28;20812;-74
2022/12/24 09:38:42;;;;;;;2.37;1.40;;;9.30;99.90;;;;;;5070974;28;20454;-74
2022/12/24 09:41:15;;;;;;;1.77;1.07;;;9.50;99.90;;;;;;5070964;28;20446;-73
2022/12/24 09:43:47;;;;;;;7.20;2.03;;;9.60;99.90;;;;;;5070961;28;20485;-74
2022/12/24 09:46:21;;;;;;;3.07;1.53;;;9.60;99.90;;;;;;5070373;28;20452;-74
2022/12/24 09:48:54;;;;;;;2.00;1.47;;;9.50;99.90;;;;;;5070870;28;20961;-74
2022/12/24 09:51:27;;;;;;;4.40;1.20;;;9.50;99.90;;;;;;5070702;28;20452;-74
2022/12/24 09:53:58;;;;;;;4.13;1.57;;;9.50;99.90;;;;;;5071048;28;20456;-73
2022/12/24 09:56:28;;;;;;;2.53;1.40;;;9.60;99.90;;;;;;5071023;28;20447;-73
2022/12/24 09:59:00;;;;;;;6.00;1.77;;;9.70;99.90;;;;;;5058134;28;20453;-73
2022/12/24 10:01:30;;;;;;;6.00;1.60;;;9.70;99.90;;;;;;5071152;28;20438;-74
2022/12/24 10:04:00;;;;;;;3.77;1.60;;;9.80;99.90;;;;;;5073030;28;20486;-74
2022/12/24 10:06:36;;;;;;;5.07;2.50;;;9.80;99.90;;;;;;5075194;28;20452;-73
2022/12/24 10:09:11;;;;;;;2.40;1.70;;;9.90;99.90;;;;;;5074355;28;20492;-73
2022/12/24 10:11:46;;;;;;;3.27;2.13;;;9.90;99.90;;;;;;5075117;28;20443;-73
2022/12/24 10:14:34;;;;;;;3.47;1.27;;;10.00;99.90;;;;;;5074909;28;20450;-73
2022/12/24 10:17:17;;;;;;;1.90;1.50;;;10.10;99.90;;;;;;5063473;28;20447;-73
2022/12/24 10:19:53;;;;;;;6.00;1.17;;;10.30;1.00;;;;;;5075160;28;20793;-74
2022/12/24 10:22:26;;;;;;;2.60;1.00;;;10.40;1.00;;;;;;5074140;28;20550;-74
2022/12/24 10:25:01;;;;;;;3.00;1.33;;;10.50;1.00;;;;;;5061403;28;20831;-74
2022/12/24 10:27:34;;;;;;;4.60;1.97;;;10.60;1.00;;;;;;5075098;28;20440;-74
2022/12/24 10:30:05;;;;;;;2.10;1.43;;;10.60;1.00;;;;;;5074533;28;20467;-74
2022/12/24 10:32:34;;;;;;;3.20;1.40;;;10.70;1.00;;;;;;5074841;28;20448;-74
2022/12/24 10:35:15;;;;;;;2.30;1.37;;;10.70;1.00;;;;;;5073570;28;20528;-74
2022/12/24 10:37:43;;;;;;;5.23;1.90;;;10.70;1.00;;;;;;5074840;28;20506;-74
2022/12/24 10:40:16;;;;;;;2.80;1.37;;;10.80;1.00;;;;;;5073799;28;20463;-72
2022/12/24 10:42:43;;;;;;;1.77;0.87;;;10.90;1.00;;;;;;5062165;28;20450;-74
2022/12/24 10:45:16;;;;;;;1.43;1.00;;;10.90;99.90;;;;;;5073500;28;20503;-72
2022/12/24 10:47:45;;;;;;;5.43;1.83;;;11.00;99.90;;;;;;5074396;28;20536;-75
2022/12/24 10:50:19;;;;;;;2.80;1.30;;;11.10;99.90;;;;;;5074262;28;20445;-72
2022/12/24 10:52:46;;;;;;;2.47;1.33;;;11.20;1.00;;;;;;5076632;28;20491;-73
2022/12/24 10:55:23;;;;;;;6.60;1.70;;;11.30;99.90;;;;;;5073335;28;20461;-75
2022/12/24 10:58:00;;;;;;;3.20;1.37;;;11.40;99.90;;;;;;5075013;28;20440;-72
2022/12/24 11:00:28;;;;;;;3.30;1.40;;;11.40;99.90;;;;;;5076447;28;20441;-72
2022/12/24 11:03:08;;;;;;;3.10;1.60;;;11.50;99.90;;;;;;5077687;28;20504;-72
2022/12/24 11:05:37;;;;;;;4.07;2.03;;;11.50;99.90;;;;;;5066211;28;20445;-74
2022/12/24 11:08:06;;;;;;;6.07;1.50;;;11.50;99.90;;;;;;5078661;28;20479;-72
2022/12/24 11:10:35;;;;;;;3.50;1.43;;;11.60;1.00;;;;;;5079923;28;20442;-72
2022/12/24 11:13:03;;;;;;;6.80;2.93;;;11.70;99.90;;;;;;5079641;28;20453;-72
2022/12/24 11:15:33;;;;;;;9.70;2.90;;;11.70;99.90;;;;;;5080191;28;20453;-71
2022/12/24 11:18:03;;;;;;;5.77;2.30;;;11.70;24.90;;;;;;5080120;28;20461;-71
2022/12/24 11:20:32;;;;;;;3.77;1.87;;;11.60;99.90;;;;;;5081398;28;20441;-72
2022/12/24 11:23:01;;;;;;;3.20;1.40;;;11.70;99.90;;;;;;5083072;28;20452;-72
2022/12/24 11:25:30;;;;;;;4.80;1.47;;;11.70;99.90;;;;;;5081933;28;20491;-72
2022/12/24 11:28:10;;;;;;;3.23;1.80;;;11.70;99.90;;;;;;5081089;28;20452;-72
2022/12/24 11:30:37;;;;;;;3.67;1.97;;;11.70;99.90;;;;;;5082894;28;20442;-72
2022/12/24 11:33:18;;;;;;;4.50;1.77;;;11.70;99.90;;;;;;5081853;28;20457;-71
2022/12/24 11:35:48;;;;;;;3.37;1.07;;;11.80;1.00;;;;;;5081692;28;20445;-72
2022/12/24 11:38:22;;;;;;;3.07;1.10;;;11.80;1.00;;;;;;5084113;28;20516;-71
2022/12/24 11:40:50;;;;;;;1.40;1.00;;;11.90;94.90;;;;;;5081610;28;20445;-72
2022/12/24 11:43:19;;;;;;;6.30;2.30;;;12.00;1.00;;;;;;5080480;28;20446;-73
2022/12/24 11:45:49;;;;;;;4.90;1.10;;;12.00;1.00;;;;;;5076178;28;20460;-72
2022/12/24 11:48:26;;;;;;;1.97;1.30;;;12.10;99.90;;;;;;5074504;28;20533;-73
2022/12/24 11:50:58;;;;;;;4.40;1.40;;;12.10;1.00;;;;;;5074653;28;20449;-72
2022/12/24 11:53:34;;;;;;;2.60;1.70;;;12.20;1.00;;;;;;5074251;28;20521;-72
2022/12/24 11:56:05;;;;;;;5.77;1.33;;;12.20;1.00;;;;;;5073938;28;20495;-71
2022/12/24 11:58:37;;;;;;;8.90;1.50;;;12.20;1.00;;;;;;5073831;28;20437;-72
2022/12/24 12:01:15;;;;;;;7.63;1.77;;;12.20;1.00;;;;;;5072747;28;20450;-72
2022/12/24 12:03:46;;;;;;;3.20;1.20;;;12.20;1.00;;;;;;5073242;28;20469;-72
2022/12/24 12:06:26;;;;;;;6.50;1.87;;;12.20;1.00;;;;;;5072171;28;20454;-72
2022/12/24 12:08:56;;;;;;;4.47;1.47;;;12.30;99.90;;;;;;5073490;28;20504;-73
2022/12/24 12:11:26;;;;;;;4.57;1.30;;;12.40;99.90;;;;;;5076797;28;20442;-73
2022/12/24 12:13:54;;;;;;;3.83;1.60;;;12.50;99.90;;;;;;5082804;28;20457;-73
2022/12/24 12:16:25;;;;;;;9.20;1.63;;;12.60;99.90;;;;;;5082819;28;20450;-72
2022/12/24 12:18:58;;;;;;;7.67;1.97;;;12.60;99.90;;;;;;5081495;28;20451;-72
2022/12/24 12:21:28;;;;;;;6.80;2.60;;;12.50;99.90;;;;;;5077472;28;20449;-72
2022/12/24 12:24:03;;;;;;;3.70;0.90;;;12.50;99.90;;;;;;5073215;28;20485;-72
2022/12/24 12:26:32;;;;;;;8.97;2.07;;;12.50;99.90;;;;;;5071956;28;20441;-72
2022/12/24 12:29:03;;;;;;;4.63;1.87;;;12.50;99.90;;;;;;5072818;28;20473;-72
2022/12/24 12:31:35;;;;;;;2.97;1.17;;;12.50;99.90;;;;;;5072755;28;20457;-75
2022/12/24 12:34:05;;;;;;;2.23;1.50;;;12.50;99.90;;;;;;5071540;28;20917;-74
2022/12/24 12:36:37;;;;;;;3.30;1.00;;;12.50;99.90;;;;;;5072201;28;20452;-72
2022/12/24 12:39:06;;;;;;;5.33;1.30;;;12.50;99.90;;;;;;5072185;28;20438;-72
2022/12/24 12:41:48;;;;;;;3.30;1.00;;;12.50;99.90;;;;;;5072501;28;20446;-73
2022/12/24 12:44:43;;;;;;;2.20;1.10;;;12.50;99.90;;;;;;5071598;28;20501;-73
2022/12/24 12:47:38;;;;;;;5.97;1.60;;;12.50;99.90;;;;;;5071129;28;20450;-73
2022/12/24 12:50:14;;;;;;;1.90;1.03;;;12.60;99.90;;;;;;5071721;28;20446;-72
2022/12/24 12:53:03;;;;;;;2.20;0.93;;;12.60;99.90;;;;;;5072324;28;20465;-72
2022/12/24 12:55:42;;;;;;;2.83;1.10;;;12.60;99.90;;;;;;5071810;28;20464;-72
2022/12/24 12:58:15;;;;;;;4.80;1.33;;;12.60;99.90;;;;;;5071310;28;20447;-73
2022/12/24 13:00:47;;;;;;;7.60;1.23;;;12.60;99.90;;;;;;5071761;28;20897;-73
2022/12/24 13:03:48;;;;;;;6.73;2.23;;;12.70;57.80;;;;;;5071253;28;20452;-73
2022/12/24 13:06:50;;;;;;;3.63;1.60;;;12.70;99.90;;;;;;5070792;28;20445;-72
2022/12/24 13:09:41;;;;;;;2.80;1.40;;;12.70;99.90;;;;;;5068232;28;20493;-73
2022/12/24 13:12:30;;;;;;;4.37;1.17;;;12.70;99.90;;;;;;5071336;28;20521;-73
2022/12/24 13:15:09;;;;;;;4.90;1.17;;;12.60;90.50;;;;;;5069238;28;20466;-73
2022/12/24 13:18:05;;;;;;;4.23;1.43;;;12.50;51.60;;;;;;5071219;28;20452;-73